createdAt,value
2023-05-15T00:00:10.568Z,97715.91
2023-05-15T00:02:38.859Z,97709.94
2023-05-15T00:05:08.690Z,97716.56
2023-05-15T00:07:39.115Z,97712.69
2023-05-15T00:10:07.852Z,97714.19
2023-05-15T00:12:36.729Z,97716.38
2023-05-15T00:15:04.747Z,97716.69
2023-05-15T00:17:32.783Z,97716.06
2023-05-15T00:20:00.738Z,97720.81
2023-05-15T00:22:28.847Z,97723.44
2023-05-15T00:24:59.517Z,97720.81
2023-05-15T00:27:28.282Z,97715.25
2023-05-15T00:29:55.996Z,97706.97
2023-05-15T00:32:23.770Z,97713.59
2023-05-15T00:34:51.552Z,97720.53
2023-05-15T00:37:19.508Z,97713.03
2023-05-15T00:39:47.390Z,97714.13
2023-05-15T00:42:17.289Z,97702.34
2023-05-15T00:44:45.772Z,97707.38
2023-05-15T00:47:15.796Z,97700.63
2023-05-15T00:49:44.564Z,97702.22
2023-05-15T00:52:13.040Z,97708.41
2023-05-15T00:54:40.983Z,97699.03
2023-05-15T00:57:09.826Z,97692.19
2023-05-15T00:59:40.434Z,97693.09
2023-05-15T01:02:08.418Z,97687.75
2023-05-15T01:04:36.247Z,97694.69
2023-05-15T01:07:04.310Z,97684.59
2023-05-15T01:09:32.943Z,97686.28
2023-05-15T01:12:02.053Z,97687.13
2023-05-15T01:14:29.811Z,97679.34
2023-05-15T01:16:59.855Z,97684.38
2023-05-15T01:19:27.868Z,97677.81
2023-05-15T01:22:26.329Z,97680.13
2023-05-15T01:25:14.515Z,97689.53
2023-05-15T01:27:46.460Z,97687.97
2023-05-15T01:30:23.332Z,97691.03
2023-05-15T01:32:58.161Z,97683.97
2023-05-15T01:35:32.695Z,97689.28
2023-05-15T01:38:14.049Z,97686.44
2023-05-15T01:40:43.246Z,97686.91
2023-05-15T01:43:16.743Z,97688.34
2023-05-15T01:45:44.632Z,97685.78
2023-05-15T01:48:14.835Z,97678.88
2023-05-15T01:50:45.540Z,97679.59
2023-05-15T01:53:13.756Z,97674.84
2023-05-15T01:55:42.585Z,97684.22
2023-05-15T01:58:12.229Z,97692.75
2023-05-15T02:00:41.088Z,97685.47
2023-05-15T02:03:09.507Z,97685.47
2023-05-15T02:05:37.744Z,97680.78
2023-05-15T02:08:06.356Z,97683.13
2023-05-15T02:10:34.722Z,97681.09
2023-05-15T02:13:03.016Z,97679.88
2023-05-15T02:15:32.247Z,97683.75
2023-05-15T02:18:00.437Z,97679.44
2023-05-15T02:20:28.179Z,97676.69
2023-05-15T02:22:56.066Z,97668.06
2023-05-15T02:25:35.830Z,97671.53
2023-05-15T02:28:08.815Z,97675.75
2023-05-15T02:30:44.092Z,97670.94
2023-05-15T02:33:19.364Z,97678.75
2023-05-15T02:35:52.396Z,97666.53
2023-05-15T02:38:27.555Z,97658.97
2023-05-15T02:40:57.959Z,97669.75
2023-05-15T02:43:27.424Z,97662.59
2023-05-15T02:45:58.057Z,97663.28
2023-05-15T02:48:27.206Z,97663.28
2023-05-15T02:50:55.322Z,97659.63
2023-05-15T02:53:23.207Z,97656.78
2023-05-15T02:55:50.943Z,97659.06
2023-05-15T02:58:18.955Z,97659.00
2023-05-15T03:00:46.744Z,97648.78
2023-05-15T03:03:15.797Z,97650.25
2023-05-15T03:05:43.577Z,97651.53
2023-05-15T03:08:11.306Z,97654.25
2023-05-15T03:10:39.125Z,97656.53
2023-05-15T03:13:06.865Z,97650.53
2023-05-15T03:15:34.643Z,97655.13
2023-05-15T03:18:02.670Z,97657.06
2023-05-15T03:20:31.930Z,97653.97
2023-05-15T03:22:59.687Z,97656.63
2023-05-15T03:25:27.571Z,97653.84
2023-05-15T03:27:55.652Z,97648.38
2023-05-15T03:30:23.567Z,97649.03
2023-05-15T03:32:51.451Z,97648.94
2023-05-15T03:35:19.636Z,97648.50
2023-05-15T03:37:49.005Z,97649.66
2023-05-15T03:40:16.681Z,97657.56
2023-05-15T03:42:56.756Z,97661.16
2023-05-15T03:45:24.802Z,97659.22
2023-05-15T03:47:52.898Z,97656.06
2023-05-15T03:50:20.970Z,97654.41
2023-05-15T03:52:50.169Z,97664.44
2023-05-15T03:55:18.015Z,97666.03
2023-05-15T03:57:45.746Z,97664.44
2023-05-15T04:00:14.887Z,97651.66
2023-05-15T04:02:43.455Z,97643.91
2023-05-15T04:05:11.613Z,97644.34
2023-05-15T04:07:39.842Z,97653.25
2023-05-15T04:10:09.743Z,97648.00
2023-05-15T04:12:40.307Z,97657.66
2023-05-15T04:15:18.372Z,97660.50
2023-05-15T04:17:47.185Z,97658.13
2023-05-15T04:20:16.669Z,97655.84
2023-05-15T04:22:45.120Z,97662.94
2023-05-15T04:25:16.154Z,97655.25
2023-05-15T04:27:44.589Z,97662.03
2023-05-15T04:30:14.677Z,97652.38
2023-05-15T04:32:42.922Z,97651.69
2023-05-15T04:35:15.459Z,97650.53
2023-05-15T04:37:45.618Z,97647.78
2023-05-15T04:40:16.687Z,97655.00
2023-05-15T04:42:45.012Z,97645.06
2023-05-15T04:45:13.319Z,97656.69
2023-05-15T04:47:41.117Z,97640.31
2023-05-15T04:50:10.209Z,97659.00
2023-05-15T04:52:37.945Z,97645.78
2023-05-15T04:55:06.790Z,97651.94
2023-05-15T04:57:36.840Z,97647.22
2023-05-15T05:00:13.716Z,97653.53
2023-05-15T05:02:44.329Z,97646.66
2023-05-15T05:05:14.737Z,97640.50
2023-05-15T05:07:45.901Z,97649.22
2023-05-15T05:10:17.395Z,97641.59
2023-05-15T05:12:47.967Z,97645.59
2023-05-15T05:15:16.220Z,97657.38
2023-05-15T05:17:47.851Z,97654.22
2023-05-15T05:20:19.002Z,97652.69
2023-05-15T05:22:47.621Z,97658.06
2023-05-15T05:25:15.675Z,97659.50
2023-05-15T05:27:45.094Z,97655.00
2023-05-15T05:30:15.321Z,97654.69
2023-05-15T05:32:46.364Z,97659.13
2023-05-15T05:35:15.665Z,97657.34
2023-05-15T05:37:45.512Z,97653.53
2023-05-15T05:40:14.091Z,97662.34
2023-05-15T05:42:42.411Z,97659.97
2023-05-15T05:45:12.032Z,97656.09
2023-05-15T05:47:41.137Z,97668.50
2023-05-15T05:50:10.804Z,97657.88
2023-05-15T05:52:38.698Z,97663.63
2023-05-15T05:55:07.258Z,97649.41
2023-05-15T05:57:35.295Z,97654.81
2023-05-15T06:00:04.131Z,97647.66
2023-05-15T06:02:31.942Z,97650.31
2023-05-15T06:05:01.224Z,97653.53
2023-05-15T06:07:28.926Z,97650.81
2023-05-15T06:09:56.626Z,97639.63
2023-05-15T06:12:24.848Z,97647.66
2023-05-15T06:14:52.608Z,97636.78
2023-05-15T06:17:21.156Z,97647.03
2023-05-15T06:19:48.860Z,97642.56
2023-05-15T06:22:19.282Z,97644.97
2023-05-15T06:24:47.260Z,97639.59
2023-05-15T06:27:15.100Z,97643.53
2023-05-15T06:29:43.285Z,97636.63
2023-05-15T06:32:11.421Z,97635.88
2023-05-15T06:34:39.102Z,97630.50
2023-05-15T06:37:07.901Z,97643.13
2023-05-15T06:39:37.396Z,97631.41
2023-05-15T06:42:05.670Z,97628.31
2023-05-15T06:44:33.687Z,97625.38
2023-05-15T06:47:01.932Z,97634.41
2023-05-15T06:49:29.778Z,97637.94
2023-05-15T06:51:57.504Z,97636.78
2023-05-15T06:54:25.305Z,97630.56
2023-05-15T06:56:54.500Z,97642.00
2023-05-15T06:59:22.218Z,97638.94
2023-05-15T07:01:49.920Z,97646.78
2023-05-15T07:04:17.682Z,97647.19
2023-05-15T07:06:45.456Z,97641.19
2023-05-15T07:09:14.522Z,97646.13
2023-05-15T07:11:42.293Z,97636.50
2023-05-15T07:14:12.328Z,97623.59
2023-05-15T07:16:39.995Z,97628.16
2023-05-15T07:19:09.886Z,97634.72
2023-05-15T07:21:38.135Z,97624.41
2023-05-15T07:24:06.493Z,97630.59
2023-05-15T07:26:43.460Z,97629.34
2023-05-15T07:29:19.791Z,97629.72
2023-05-15T07:31:47.558Z,97628.84
2023-05-15T07:34:16.375Z,97620.75
2023-05-15T07:36:44.079Z,97631.28
2023-05-15T07:39:11.870Z,97622.16
2023-05-15T07:41:39.622Z,97635.78
2023-05-15T07:44:07.393Z,97633.34
2023-05-15T07:46:36.450Z,97633.78
2023-05-15T07:49:04.264Z,97622.59
2023-05-15T07:51:32.118Z,97630.97
2023-05-15T07:53:59.970Z,97629.59
2023-05-15T07:56:28.223Z,97613.50
2023-05-15T07:58:56.066Z,97619.78
2023-05-15T08:01:23.921Z,97611.97
2023-05-15T08:03:54.316Z,97622.78
2023-05-15T08:06:22.072Z,97623.34
2023-05-15T08:08:51.612Z,97618.34
2023-05-15T08:11:19.651Z,97616.97
2023-05-15T08:13:47.322Z,97620.78
2023-05-15T08:16:15.075Z,97617.22
2023-05-15T08:18:42.849Z,97615.31
2023-05-15T08:21:12.565Z,97601.59
2023-05-15T08:23:40.322Z,97607.56
2023-05-15T08:26:08.438Z,97602.78
2023-05-15T08:28:36.444Z,97609.00
2023-05-15T08:31:04.410Z,97609.56
2023-05-15T08:33:32.188Z,97607.91
2023-05-15T08:35:59.855Z,97615.16
2023-05-15T08:38:28.882Z,97605.19
2023-05-15T08:41:00.609Z,97597.22
2023-05-15T08:43:32.967Z,97596.13
2023-05-15T08:46:01.415Z,97587.34
2023-05-15T08:48:31.438Z,97592.09
2023-05-15T08:51:01.559Z,97594.84
2023-05-15T08:53:32.861Z,97583.63
2023-05-15T08:56:01.163Z,97589.03
2023-05-15T08:58:29.335Z,97586.72
2023-05-15T09:00:58.603Z,97592.34
2023-05-15T09:03:26.421Z,97582.44
2023-05-15T09:05:55.700Z,97594.91
2023-05-15T09:08:23.991Z,97587.38
2023-05-15T09:10:55.464Z,97583.09
2023-05-15T09:13:23.766Z,97569.38
2023-05-15T09:15:52.293Z,97576.56
2023-05-15T09:18:21.201Z,97568.97
2023-05-15T09:20:49.321Z,97567.13
2023-05-15T09:23:25.928Z,97571.94
2023-05-15T09:25:56.895Z,97571.91
2023-05-15T09:28:30.312Z,97574.69
2023-05-15T09:31:01.027Z,97563.72
2023-05-15T09:33:29.732Z,97558.13
2023-05-15T09:35:57.518Z,97562.22
2023-05-15T09:38:27.156Z,97558.19
2023-05-15T09:41:04.569Z,97559.19
2023-05-15T09:43:36.382Z,97549.22
2023-05-15T09:46:04.469Z,97547.00
2023-05-15T09:48:33.490Z,97555.81
2023-05-15T09:51:02.377Z,97562.56
2023-05-15T09:53:31.861Z,97561.63
2023-05-15T09:55:59.810Z,97562.88
2023-05-15T09:58:28.923Z,97555.31
2023-05-15T10:01:00.884Z,97564.41
2023-05-15T10:03:36.436Z,97558.16
2023-05-15T10:06:04.694Z,97572.72
2023-05-15T10:08:35.413Z,97575.31
2023-05-15T10:11:03.273Z,97586.78
2023-05-15T10:13:35.311Z,97589.69
2023-05-15T10:16:04.112Z,97586.31
2023-05-15T10:18:35.014Z,97593.19
2023-05-15T10:21:04.692Z,97587.28
2023-05-15T10:23:37.786Z,97583.56
2023-05-15T10:26:12.426Z,97590.56
2023-05-15T10:28:44.787Z,97580.19
2023-05-15T10:31:14.137Z,97585.97
2023-05-15T10:33:45.134Z,97591.75
2023-05-15T10:36:19.343Z,97595.59
2023-05-15T10:38:47.726Z,97587.69
2023-05-15T10:41:18.549Z,97586.13
2023-05-15T10:43:48.453Z,97576.19
2023-05-15T10:46:17.278Z,97565.53
2023-05-15T10:48:45.154Z,97572.44
2023-05-15T10:51:19.868Z,97567.78
2023-05-15T10:53:47.738Z,97565.81
2023-05-15T10:56:17.150Z,97564.25
2023-05-15T10:58:50.966Z,97560.28
2023-05-15T11:01:33.086Z,97553.59
2023-05-15T11:04:08.733Z,97552.25
2023-05-15T11:06:37.548Z,97545.69
2023-05-15T11:09:39.463Z,97534.91
2023-05-15T11:12:09.226Z,97534.41
2023-05-15T11:14:40.842Z,97534.94
2023-05-15T11:17:10.320Z,97534.03
2023-05-15T11:19:54.310Z,97529.03
2023-05-15T11:22:23.883Z,97525.00
2023-05-15T11:24:54.012Z,97518.13
2023-05-15T11:27:23.781Z,97515.34
2023-05-15T11:30:14.700Z,97510.13
2023-05-15T11:32:44.655Z,97494.47
2023-05-15T11:35:13.022Z,97495.50
2023-05-15T11:37:43.906Z,97486.53
2023-05-15T11:40:15.280Z,97487.47
2023-05-15T11:42:43.251Z,97486.06
2023-05-15T11:45:12.658Z,97481.66
2023-05-15T11:47:45.410Z,97477.59
2023-05-15T11:50:13.748Z,97480.09
2023-05-15T11:52:41.676Z,97475.16
2023-05-15T11:55:10.321Z,97474.97
2023-05-15T11:57:40.175Z,97471.16
2023-05-15T12:00:10.190Z,97478.97
2023-05-15T12:02:39.360Z,97465.47
2023-05-15T12:05:08.471Z,97475.03
2023-05-15T12:07:38.778Z,97468.25
2023-05-15T12:10:07.800Z,97463.03
2023-05-15T12:12:37.637Z,97465.97
2023-05-15T12:15:06.485Z,97462.44
2023-05-15T12:17:35.934Z,97461.78
2023-05-15T12:20:06.930Z,97463.03
2023-05-15T12:22:38.178Z,97463.63
2023-05-15T12:25:07.801Z,97459.16
2023-05-15T12:27:36.358Z,97455.91
2023-05-15T12:30:05.524Z,97453.94
2023-05-15T12:32:37.110Z,97467.47
2023-05-15T12:35:07.204Z,97468.41
2023-05-15T12:37:37.441Z,97501.63
2023-05-15T12:40:10.426Z,97510.50
2023-05-15T12:42:42.935Z,97514.66
2023-05-15T12:45:15.608Z,97510.72
2023-05-15T12:47:44.325Z,97501.53
2023-05-15T12:50:17.975Z,97490.19
2023-05-15T12:52:52.045Z,97488.16
2023-05-15T12:55:23.949Z,97496.31
2023-05-15T12:57:52.271Z,97502.88
2023-05-15T13:00:22.656Z,97490.91
2023-05-15T13:02:51.561Z,97495.41
2023-05-15T13:05:20.979Z,97498.41
2023-05-15T13:07:49.058Z,97481.59
2023-05-15T13:10:17.796Z,97481.59
2023-05-15T13:12:50.207Z,97493.31
2023-05-15T13:15:26.880Z,97483.66
2023-05-15T13:17:57.580Z,97484.63
2023-05-15T13:20:27.543Z,97481.19
2023-05-15T13:22:55.963Z,97478.16
2023-05-15T13:25:23.828Z,97466.38
2023-05-15T13:27:52.668Z,97467.25
2023-05-15T13:30:20.734Z,97467.53
2023-05-15T13:32:49.354Z,97455.56
2023-05-15T13:35:17.534Z,97459.47
2023-05-15T13:37:47.689Z,97462.38
2023-05-15T13:40:15.609Z,97464.91
2023-05-15T13:42:44.683Z,97460.16
2023-05-15T13:45:13.641Z,97468.91
2023-05-15T13:47:41.848Z,97465.16
2023-05-15T13:50:11.969Z,97469.13
2023-05-15T13:52:40.449Z,97467.38
2023-05-15T13:55:10.798Z,97463.38
2023-05-15T13:57:39.105Z,97468.91
2023-05-15T14:00:09.276Z,97459.56
2023-05-15T14:02:37.062Z,97460.53
2023-05-15T14:05:05.681Z,97454.56
2023-05-15T14:07:33.342Z,97459.28
2023-05-15T14:10:01.176Z,97451.38
2023-05-15T14:12:30.300Z,97449.59
2023-05-15T14:14:58.428Z,97453.19
2023-05-15T14:17:27.824Z,97453.56
2023-05-15T14:19:55.608Z,97461.50
2023-05-15T14:22:25.102Z,97462.72
2023-05-15T14:24:53.355Z,97464.00
2023-05-15T14:27:21.434Z,97457.91
2023-05-15T14:29:51.354Z,97451.81
2023-05-15T14:32:19.168Z,97465.00
2023-05-15T14:34:47.324Z,97462.09
2023-05-15T14:37:15.106Z,97455.84
2023-05-15T14:39:42.852Z,97459.63
2023-05-15T14:42:10.784Z,97459.38
2023-05-15T14:44:38.469Z,97463.00
2023-05-15T14:47:09.037Z,97467.81
2023-05-15T14:49:37.037Z,97468.81
2023-05-15T14:52:07.951Z,97475.91
2023-05-15T14:54:36.430Z,97475.75
2023-05-15T14:57:04.858Z,97476.59
2023-05-15T14:59:32.717Z,97476.13
2023-05-15T15:02:00.746Z,97474.44
2023-05-15T15:04:34.393Z,97475.97
2023-05-15T15:07:04.798Z,97475.19
2023-05-15T15:09:32.638Z,97479.16
2023-05-15T15:12:00.579Z,97491.38
2023-05-15T15:14:28.552Z,97487.06
2023-05-15T15:16:56.520Z,97492.72
2023-05-15T15:19:24.496Z,97483.00
2023-05-15T15:21:54.310Z,97490.09
2023-05-15T15:24:22.179Z,97494.91
2023-05-15T15:26:49.978Z,97483.59
2023-05-15T15:29:17.689Z,97489.38
2023-05-15T15:31:45.614Z,97471.84
2023-05-15T15:34:13.375Z,97478.16
2023-05-15T15:36:41.641Z,97476.44
2023-05-15T15:39:12.476Z,97479.47
2023-05-15T15:41:40.723Z,97480.56
2023-05-15T15:44:08.428Z,97482.88
2023-05-15T15:46:36.589Z,97487.00
2023-05-15T15:49:08.578Z,97475.38
2023-05-15T15:51:38.898Z,97486.94
2023-05-15T15:54:07.363Z,97484.53
2023-05-15T15:56:36.730Z,97472.97
2023-05-15T15:59:07.309Z,97473.81
2023-05-15T16:01:35.169Z,97474.59
2023-05-15T16:04:03.029Z,97465.53
2023-05-15T16:06:30.906Z,97479.03
2023-05-15T16:08:59.813Z,97483.13
2023-05-15T16:11:29.591Z,97475.41
2023-05-15T16:13:58.845Z,97476.84
2023-05-15T16:16:26.848Z,97484.25
2023-05-15T16:18:54.765Z,97475.16
2023-05-15T16:21:23.825Z,97484.19
2023-05-15T16:23:53.810Z,97485.03
2023-05-15T16:26:23.694Z,97483.47
2023-05-15T16:28:53.109Z,97486.72
2023-05-15T16:31:24.744Z,97482.84
2023-05-15T16:33:53.231Z,97494.66
2023-05-15T16:36:21.197Z,97489.69
2023-05-15T16:38:49.014Z,97501.06
2023-05-15T16:41:16.943Z,97505.06
2023-05-15T16:43:52.943Z,97503.50
2023-05-15T16:46:23.665Z,97513.50
2023-05-15T16:48:51.479Z,97508.53
2023-05-15T16:51:21.536Z,97510.63
2023-05-15T16:53:49.373Z,97510.44
2023-05-15T16:56:17.261Z,97517.97
2023-05-15T16:58:47.726Z,97523.97
2023-05-15T17:01:15.723Z,97518.50
2023-05-15T17:03:45.194Z,97525.63
2023-05-15T17:06:13.390Z,97531.16
2023-05-15T17:08:42.949Z,97523.22
2023-05-15T17:11:13.399Z,97528.66
2023-05-15T17:13:42.731Z,97525.41
2023-05-15T17:16:10.832Z,97523.91
2023-05-15T17:18:39.869Z,97530.56
2023-05-15T17:21:09.671Z,97536.41
2023-05-15T17:23:37.644Z,97547.50
2023-05-15T17:26:05.986Z,97541.38
2023-05-15T17:28:36.230Z,97552.50
2023-05-15T17:31:10.809Z,97565.44
2023-05-15T17:33:39.872Z,97566.38
2023-05-15T17:36:10.118Z,97573.75
2023-05-15T17:38:37.910Z,97577.09
2023-05-15T17:41:07.231Z,97587.44
2023-05-15T17:43:36.612Z,97586.78
2023-05-15T17:46:05.739Z,97590.75
2023-05-15T17:48:34.472Z,97594.75
2023-05-15T17:51:03.343Z,97592.41
2023-05-15T17:53:32.560Z,97603.47
2023-05-15T17:56:01.116Z,97602.72
2023-05-15T17:58:30.166Z,97612.16
2023-05-15T18:00:57.926Z,97612.19
2023-05-15T18:03:25.821Z,97613.78
2023-05-15T18:05:56.053Z,97614.56
2023-05-15T18:08:23.963Z,97611.41
2023-05-15T18:10:54.069Z,97629.53
2023-05-15T18:13:22.193Z,97633.84
2023-05-15T18:15:50.108Z,97633.47
2023-05-15T18:18:17.853Z,97638.94
2023-05-15T18:20:45.881Z,97643.66
2023-05-15T18:23:14.054Z,97647.56
2023-05-15T18:25:43.283Z,97645.22
2023-05-15T18:28:12.531Z,97644.03
2023-05-15T18:30:41.673Z,97646.00
2023-05-15T18:33:10.171Z,97648.34
2023-05-15T18:35:38.403Z,97645.97
2023-05-15T18:38:07.144Z,97649.91
2023-05-15T18:40:35.993Z,97660.13
2023-05-15T18:43:04.125Z,97645.19
2023-05-15T18:45:33.358Z,97658.53
2023-05-15T18:48:01.286Z,97647.56
2023-05-15T18:50:29.092Z,97653.84
2023-05-15T18:52:56.965Z,97652.25
2023-05-15T18:55:27.744Z,97648.31
2023-05-15T18:57:55.882Z,97655.41
2023-05-15T19:00:37.176Z,97638.91
2023-05-15T19:03:09.632Z,97644.44
2023-05-15T19:05:37.680Z,97645.19
2023-05-15T19:08:05.639Z,97651.47
2023-05-15T19:10:33.421Z,97652.25
2023-05-15T19:13:01.404Z,97650.66
2023-05-15T19:15:29.158Z,97638.84
2023-05-15T19:17:57.080Z,97649.06
2023-05-15T19:20:26.593Z,97641.19
2023-05-15T19:22:54.542Z,97650.97
2023-05-15T19:25:22.605Z,97660.78
2023-05-15T19:27:50.360Z,97652.91
2023-05-15T19:30:18.618Z,97656.88
2023-05-15T19:32:46.848Z,97651.41
2023-05-15T19:35:14.626Z,97675.75
2023-05-15T19:37:43.827Z,97678.09
2023-05-15T19:40:14.994Z,97680.47
2023-05-15T19:42:42.717Z,97685.97
2023-05-15T19:45:11.250Z,97676.53
2023-05-15T19:47:42.656Z,97682.06
2023-05-15T19:50:16.682Z,97689.09
2023-05-15T19:52:50.733Z,97692.25
2023-05-15T19:55:19.077Z,97689.91
2023-05-15T19:57:50.061Z,97689.91
2023-05-15T20:00:23.521Z,97685.56
2023-05-15T20:02:51.988Z,97695.00
2023-05-15T20:05:20.593Z,97690.28
2023-05-15T20:07:53.276Z,97680.44
2023-05-15T20:10:22.152Z,97685.94
2023-05-15T20:12:50.608Z,97679.66
2023-05-15T20:15:19.640Z,97685.91
2023-05-15T20:17:48.718Z,97684.31
2023-05-15T20:20:18.341Z,97685.06
2023-05-15T20:22:49.375Z,97695.25
2023-05-15T20:25:19.303Z,97695.22
2023-05-15T20:27:48.070Z,97687.34
2023-05-15T20:30:19.545Z,97698.69
2023-05-15T20:32:48.043Z,97693.63
2023-05-15T20:35:17.848Z,97692.03
2023-05-15T20:37:45.832Z,97696.66
2023-05-15T20:40:17.010Z,97689.66
2023-05-15T20:42:46.455Z,97698.25
2023-05-15T20:45:19.242Z,97700.97
2023-05-15T20:47:47.329Z,97702.56
2023-05-15T20:50:16.422Z,97704.53
2023-05-15T20:52:46.120Z,97712.44
2023-05-15T20:55:16.819Z,97701.06
2023-05-15T20:57:48.654Z,97701.44
2023-05-15T21:00:20.338Z,97697.53
2023-05-15T21:02:51.537Z,97695.50
2023-05-15T21:05:23.217Z,97704.56
2023-05-15T21:07:52.682Z,97703.38
2023-05-15T21:10:22.101Z,97706.13
2023-05-15T21:12:59.284Z,97699.81
2023-05-15T21:15:30.350Z,97704.44
2023-05-15T21:17:58.672Z,97702.84
2023-05-15T21:20:29.265Z,97704.00
2023-05-15T21:22:57.741Z,97698.44
2023-05-15T21:25:26.245Z,97708.97
2023-05-15T21:27:57.631Z,97706.19
2023-05-15T21:30:28.784Z,97704.16
2023-05-15T21:32:57.302Z,97700.91
2023-05-15T21:35:27.306Z,97702.03
2023-05-15T21:37:56.724Z,97707.13
2023-05-15T21:40:24.933Z,97707.88
2023-05-15T21:42:53.437Z,97698.06
2023-05-15T21:45:24.097Z,97707.81
2023-05-15T21:47:54.087Z,97697.53
2023-05-15T21:50:22.259Z,97714.72
2023-05-15T21:52:51.627Z,97710.78
2023-05-15T21:55:24.817Z,97719.66
2023-05-15T21:57:54.081Z,97714.53
2023-05-15T22:00:23.286Z,97720.72
2023-05-15T22:02:51.212Z,97723.53
2023-05-15T22:05:20.605Z,97726.06
2023-05-15T22:07:48.500Z,97721.38
2023-05-15T22:10:20.182Z,97723.63
2023-05-15T22:12:54.017Z,97724.38
2023-05-15T22:15:23.362Z,97728.28
2023-05-15T22:17:52.893Z,97725.88
2023-05-15T22:20:21.565Z,97723.47
2023-05-15T22:22:49.586Z,97731.59
2023-05-15T22:25:24.981Z,97731.59
2023-05-15T22:27:53.220Z,97729.59
2023-05-15T22:30:27.954Z,97731.09
2023-05-15T22:32:56.353Z,97729.16
2023-05-15T22:35:24.791Z,97735.78
2023-05-15T22:37:52.933Z,97732.69
2023-05-15T22:40:21.111Z,97731.84
2023-05-15T22:42:50.192Z,97742.78
2023-05-15T22:45:18.673Z,97741.22
2023-05-15T22:47:51.168Z,97733.31
2023-05-15T22:50:18.940Z,97736.38
2023-05-15T22:52:46.662Z,97737.75
2023-05-15T22:55:14.682Z,97734.53
2023-05-15T22:57:42.442Z,97740.00
2023-05-15T23:00:11.286Z,97731.28
2023-05-15T23:02:39.611Z,97735.84
2023-05-15T23:05:10.458Z,97734.19
2023-05-15T23:07:38.397Z,97732.16
2023-05-15T23:10:07.313Z,97737.94
2023-05-15T23:12:35.331Z,97733.97
2023-05-15T23:15:03.065Z,97745.28
2023-05-15T23:17:30.937Z,97748.78
2023-05-15T23:19:58.998Z,97739.84
2023-05-15T23:22:29.805Z,97739.84
2023-05-15T23:24:57.688Z,97742.59
2023-05-15T23:27:25.502Z,97737.00
2023-05-15T23:29:53.234Z,97747.94
2023-05-15T23:32:21.057Z,97743.19
2023-05-15T23:34:48.843Z,97739.25
2023-05-15T23:37:16.803Z,97738.31
2023-05-15T23:39:46.077Z,97746.81
2023-05-15T23:42:13.776Z,97740.50
2023-05-15T23:44:41.586Z,97745.97
2023-05-15T23:47:09.550Z,97741.22
2023-05-15T23:49:37.267Z,97745.53
2023-05-15T23:52:05.623Z,97743.94
2023-05-15T23:54:33.424Z,97742.75
2023-05-15T23:57:03.612Z,97738.09
2023-05-15T23:59:31.405Z,97742.00
